createdAt,value
2018-03-21T00:01:04.244Z,1.90
2018-03-21T00:03:32.678Z,2.12
2018-03-21T00:06:01.337Z,2.15
2018-03-21T00:08:29.978Z,2.25
2018-03-21T00:10:59.367Z,1.80
2018-03-21T00:13:27.993Z,1.90
2018-03-21T00:15:56.617Z,1.80
2018-03-21T00:18:25.260Z,2.00
2018-03-21T00:20:54.681Z,2.15
2018-03-21T00:23:23.601Z,2.00
2018-03-21T00:25:53.725Z,2.87
2018-03-21T00:28:22.357Z,2.15
2018-03-21T00:30:51.570Z,2.28
2018-03-21T00:33:20.192Z,3.33
2018-03-21T00:35:49.595Z,1.75
2018-03-21T00:38:18.216Z,3.22
2018-03-21T00:40:47.127Z,2.10
2018-03-21T00:43:15.736Z,2.10
2018-03-21T00:45:44.349Z,2.33
2018-03-21T00:48:13.743Z,2.65
2018-03-21T00:50:43.136Z,2.00
2018-03-21T00:53:11.772Z,1.67
2018-03-21T00:55:40.383Z,2.40
2018-03-21T00:58:09.036Z,2.12
2018-03-21T01:00:37.864Z,1.90
2018-03-21T01:03:06.492Z,2.42
2018-03-21T01:05:35.122Z,1.85
2018-03-21T01:08:03.736Z,2.22
2018-03-21T01:10:32.557Z,3.25
2018-03-21T01:13:01.181Z,2.35
2018-03-21T01:15:30.162Z,1.80
2018-03-21T01:17:58.779Z,1.92
2018-03-21T01:20:27.424Z,2.12
2018-03-21T01:22:56.055Z,2.25
2018-03-21T01:25:24.676Z,2.33
2018-03-21T01:27:53.315Z,2.35
2018-03-21T01:30:21.927Z,1.40
2018-03-21T01:32:50.547Z,1.70
2018-03-21T01:35:19.933Z,1.75
2018-03-21T01:37:48.405Z,2.10
2018-03-21T01:40:17.059Z,2.03
2018-03-21T01:42:46.452Z,1.98
2018-03-21T01:45:15.076Z,2.17
2018-03-21T01:47:43.712Z,2.60
2018-03-21T01:50:12.354Z,2.37
2018-03-21T01:52:40.986Z,2.20
2018-03-21T01:55:09.620Z,2.35
2018-03-21T01:57:38.251Z,1.98
2018-03-21T02:00:06.887Z,2.00
2018-03-21T02:02:35.514Z,2.10
2018-03-21T02:05:03.461Z,1.87
2018-03-21T02:07:32.109Z,2.05
2018-03-21T02:10:00.750Z,2.85
2018-03-21T02:12:29.400Z,1.80
2018-03-21T02:14:58.019Z,2.10
2018-03-21T02:17:26.645Z,2.30
2018-03-21T02:19:55.261Z,1.98
2018-03-21T02:22:23.896Z,1.95
2018-03-21T02:24:53.320Z,2.37
2018-03-21T02:27:21.949Z,1.80
2018-03-21T02:29:50.644Z,1.58
2018-03-21T02:32:19.271Z,1.95
2018-03-21T02:34:48.035Z,2.17
2018-03-21T02:37:17.421Z,2.17
2018-03-21T02:39:46.062Z,1.62
2018-03-21T02:42:14.736Z,2.20
2018-03-21T02:44:43.370Z,2.37
2018-03-21T02:47:12.004Z,2.30
2018-03-21T02:49:40.638Z,2.00
2018-03-21T02:52:10.046Z,2.15
2018-03-21T02:54:38.518Z,2.35
2018-03-21T02:57:07.177Z,2.05
2018-03-21T02:59:35.801Z,3.17
2018-03-21T03:02:03.766Z,2.35
2018-03-21T03:04:32.587Z,2.30
2018-03-21T03:07:01.226Z,2.25
2018-03-21T03:09:29.857Z,2.25
2018-03-21T03:11:59.452Z,1.87
2018-03-21T03:14:28.087Z,2.62
2018-03-21T03:16:57.489Z,2.80
2018-03-21T03:19:26.122Z,2.20
2018-03-21T03:21:55.492Z,2.35
2018-03-21T03:24:24.140Z,2.30
2018-03-21T03:26:52.754Z,1.92
2018-03-21T03:29:21.389Z,2.20
2018-03-21T03:31:50.054Z,2.20
2018-03-21T03:34:19.445Z,2.60
2018-03-21T03:36:48.839Z,2.65
2018-03-21T03:39:17.546Z,2.17
2018-03-21T03:41:46.916Z,2.58
2018-03-21T03:44:15.534Z,2.20
2018-03-21T03:46:44.932Z,2.35
2018-03-21T03:49:13.534Z,2.87
2018-03-21T03:51:42.180Z,2.85
2018-03-21T03:54:10.799Z,2.40
2018-03-21T03:56:39.448Z,2.78
2018-03-21T03:59:08.073Z,2.62
2018-03-21T04:01:36.697Z,2.08
2018-03-21T04:04:05.319Z,1.75
2018-03-21T04:06:34.698Z,2.83
2018-03-21T04:09:03.010Z,2.05
2018-03-21T04:11:31.622Z,2.15
2018-03-21T04:14:00.263Z,1.90
2018-03-21T04:16:29.653Z,2.22
2018-03-21T04:18:58.281Z,2.10
2018-03-21T04:21:26.953Z,2.90
2018-03-21T04:23:55.890Z,2.90
2018-03-21T04:26:24.505Z,2.40
2018-03-21T04:28:53.905Z,2.70
2018-03-21T04:31:22.539Z,3.37
2018-03-21T04:33:51.152Z,3.33
2018-03-21T04:36:19.789Z,2.75
2018-03-21T04:38:48.405Z,3.42
2018-03-21T04:41:17.028Z,2.40
2018-03-21T04:43:46.427Z,2.37
2018-03-21T04:46:15.257Z,2.87
2018-03-21T04:48:43.351Z,1.85
2018-03-21T04:51:11.776Z,1.90
2018-03-21T04:53:40.990Z,2.20
2018-03-21T04:56:09.601Z,2.20
2018-03-21T04:58:38.044Z,2.08
2018-03-21T05:01:06.655Z,2.65
2018-03-21T05:03:35.407Z,3.10
2018-03-21T05:06:04.621Z,3.15
2018-03-21T05:08:33.383Z,2.37
2018-03-21T05:11:01.810Z,2.35
2018-03-21T05:13:30.433Z,2.25
2018-03-21T05:15:59.067Z,2.40
2018-03-21T05:18:28.459Z,2.28
2018-03-21T05:20:57.085Z,2.10
2018-03-21T05:23:25.708Z,2.55
2018-03-21T05:25:55.107Z,1.90
2018-03-21T05:28:24.538Z,3.17
2018-03-21T05:30:53.189Z,2.12
2018-03-21T05:33:21.849Z,2.95
2018-03-21T05:35:50.488Z,2.75
2018-03-21T05:38:19.124Z,2.12
2018-03-21T05:40:47.738Z,3.00
2018-03-21T05:43:17.138Z,2.50
2018-03-21T05:45:46.520Z,2.45
2018-03-21T05:48:15.158Z,2.08
2018-03-21T05:50:43.770Z,3.22
2018-03-21T05:53:13.880Z,3.70
2018-03-21T05:55:42.509Z,4.00
2018-03-21T05:58:11.920Z,3.12
2018-03-21T06:00:41.317Z,4.07
2018-03-21T06:03:10.701Z,5.78
2018-03-21T06:05:39.338Z,8.05
2018-03-21T06:08:07.974Z,5.90
2018-03-21T06:10:36.616Z,8.70
2018-03-21T06:13:05.244Z,7.20
2018-03-21T06:15:34.641Z,9.05
2018-03-21T06:18:04.056Z,7.90
2018-03-21T06:20:32.874Z,9.98
2018-03-21T06:23:01.509Z,10.35
2018-03-21T06:25:30.120Z,12.73
2018-03-21T06:27:58.753Z,8.95
2018-03-21T06:30:27.373Z,7.47
2018-03-21T06:32:56.777Z,8.95
2018-03-21T06:35:26.191Z,8.00
2018-03-21T06:37:54.853Z,9.50
2018-03-21T06:40:24.268Z,7.68
2018-03-21T06:42:53.653Z,9.35
2018-03-21T06:45:23.061Z,7.97
2018-03-21T06:47:52.314Z,8.50
2018-03-21T06:50:23.570Z,8.27
2018-03-21T06:52:53.390Z,7.62
2018-03-21T06:55:22.043Z,6.40
2018-03-21T06:57:50.776Z,8.95
2018-03-21T07:00:20.351Z,8.63
2018-03-21T07:02:48.982Z,6.85
2018-03-21T07:05:18.379Z,8.70
2018-03-21T07:07:47.795Z,10.40
2018-03-21T07:10:17.188Z,9.27
2018-03-21T07:12:46.611Z,7.47
2018-03-21T07:15:26.642Z,7.28
2018-03-21T07:17:56.037Z,9.95
2018-03-21T07:20:25.511Z,9.68
2018-03-21T07:22:54.170Z,8.30
2018-03-21T07:25:22.472Z,8.52
2018-03-21T07:27:51.145Z,9.95
2018-03-21T07:30:19.793Z,11.00
2018-03-21T07:32:49.412Z,10.20
2018-03-21T07:35:18.062Z,8.95
2018-03-21T07:37:46.763Z,10.13
2018-03-21T07:40:15.441Z,11.45
2018-03-21T07:42:44.925Z,8.00
2018-03-21T07:45:13.573Z,11.02
2018-03-21T07:47:42.196Z,11.27
2018-03-21T07:50:10.850Z,13.50
2018-03-21T07:52:39.490Z,14.38
2018-03-21T07:55:08.916Z,16.42
2018-03-21T07:57:37.596Z,13.40
2018-03-21T08:00:05.915Z,15.27
2018-03-21T08:02:34.556Z,14.98
2018-03-21T08:05:03.224Z,13.90
2018-03-21T08:07:31.872Z,13.90
2018-03-21T08:10:00.509Z,18.00
2018-03-21T08:12:29.185Z,18.73
2018-03-21T08:14:57.844Z,14.63
2018-03-21T08:17:26.480Z,16.00
2018-03-21T08:19:55.127Z,19.05
2018-03-21T08:22:24.516Z,16.90
2018-03-21T08:24:53.922Z,14.98
2018-03-21T08:27:23.324Z,13.20
2018-03-21T08:29:51.957Z,14.20
2018-03-21T08:32:20.593Z,15.48
2018-03-21T08:34:50.011Z,8.60
2018-03-21T08:37:18.660Z,15.20
2018-03-21T08:39:47.322Z,19.55
2018-03-21T08:42:16.037Z,18.98
2018-03-21T08:44:44.851Z,14.70
2018-03-21T08:47:14.300Z,19.27
2018-03-21T08:49:42.986Z,11.48
2018-03-21T08:52:13.272Z,15.52
2018-03-21T08:54:41.982Z,14.87
2018-03-21T08:57:10.636Z,16.30
2018-03-21T08:59:39.264Z,20.58
2018-03-21T09:02:07.909Z,19.25
2018-03-21T09:04:36.596Z,17.60
2018-03-21T09:07:05.447Z,23.67
2018-03-21T09:09:34.217Z,17.25
2018-03-21T09:12:02.878Z,22.37
2018-03-21T09:14:31.339Z,19.80
2018-03-21T09:17:00.004Z,18.37
2018-03-21T09:19:28.666Z,14.05
2018-03-21T09:21:57.299Z,18.45
2018-03-21T09:24:25.986Z,14.10
2018-03-21T09:26:54.504Z,16.30
2018-03-21T09:29:23.165Z,16.42
2018-03-21T09:31:51.529Z,14.60
2018-03-21T09:34:20.195Z,16.27
2018-03-21T09:36:49.624Z,16.87
2018-03-21T09:39:17.984Z,14.23
2018-03-21T09:41:46.327Z,20.70
2018-03-21T09:44:14.686Z,20.67
2018-03-21T09:46:43.328Z,21.02
2018-03-21T09:49:11.963Z,22.35
2018-03-21T09:51:41.034Z,20.90
2018-03-21T09:54:09.723Z,18.08
2018-03-21T09:56:38.860Z,19.80
2018-03-21T09:59:07.220Z,18.67
2018-03-21T10:01:35.589Z,13.10
2018-03-21T10:04:04.733Z,20.10
2018-03-21T10:06:33.085Z,12.77
2018-03-21T10:09:01.504Z,18.93
2018-03-21T10:11:29.864Z,14.83
2018-03-21T10:13:58.222Z,14.70
2018-03-21T10:16:26.599Z,19.67
2018-03-21T10:18:55.162Z,18.40
2018-03-21T10:21:24.307Z,15.20
2018-03-21T10:23:52.713Z,15.20
2018-03-21T10:26:21.065Z,11.63
2018-03-21T10:28:49.480Z,15.13
2018-03-21T10:31:17.838Z,14.40
2018-03-21T10:33:46.196Z,16.07
2018-03-21T10:36:14.690Z,21.07
2018-03-21T10:38:42.880Z,20.37
2018-03-21T10:41:11.283Z,18.10
2018-03-21T10:43:40.213Z,16.87
2018-03-21T10:46:08.581Z,17.47
2018-03-21T10:48:36.945Z,16.50
2018-03-21T10:51:05.298Z,15.27
2018-03-21T10:53:34.801Z,14.03
2018-03-21T10:56:03.147Z,16.50
2018-03-21T10:58:31.526Z,17.23
2018-03-21T11:00:59.687Z,15.80
2018-03-21T11:03:28.365Z,14.68
2018-03-21T11:05:56.713Z,15.07
2018-03-21T11:08:25.344Z,16.10
2018-03-21T11:10:53.756Z,14.93
2018-03-21T11:13:22.896Z,14.40
2018-03-21T11:15:51.248Z,13.10
2018-03-21T11:18:19.608Z,17.40
2018-03-21T11:20:48.725Z,15.07
2018-03-21T11:23:17.377Z,15.65
2018-03-21T11:25:45.760Z,17.47
2018-03-21T11:28:14.995Z,15.03
2018-03-21T11:30:43.381Z,19.20
2018-03-21T11:33:11.791Z,18.10
2018-03-21T11:35:40.170Z,16.70
2018-03-21T11:38:08.681Z,15.17
2018-03-21T11:40:37.325Z,13.35
2018-03-21T11:43:05.680Z,13.60
2018-03-21T11:45:34.034Z,14.20
2018-03-21T11:48:02.411Z,10.50
2018-03-21T11:50:31.676Z,5.40
2018-03-21T11:53:00.235Z,10.93
2018-03-21T11:55:28.595Z,12.20
2018-03-21T11:57:56.944Z,10.23
2018-03-21T12:00:26.105Z,10.87
2018-03-21T12:02:54.522Z,12.73
2018-03-21T12:05:22.861Z,10.83
2018-03-21T12:07:51.220Z,11.50
2018-03-21T12:10:19.590Z,11.50
2018-03-21T12:12:47.971Z,11.90
2018-03-21T12:15:16.341Z,10.03
2018-03-21T12:17:44.707Z,11.20
2018-03-21T12:20:13.100Z,11.20
2018-03-21T12:22:41.593Z,8.83
2018-03-21T12:25:09.949Z,9.87
2018-03-21T12:27:38.332Z,9.30
2018-03-21T12:30:06.021Z,11.17
2018-03-21T12:32:34.385Z,10.90
2018-03-21T12:35:02.748Z,10.77
2018-03-21T12:37:31.108Z,6.27
2018-03-21T12:39:59.469Z,9.70
2018-03-21T12:42:28.605Z,7.60
2018-03-21T12:44:56.945Z,10.30
2018-03-21T12:47:26.073Z,8.17
2018-03-21T12:49:54.792Z,7.30
2018-03-21T12:52:24.184Z,6.97
2018-03-21T12:54:52.553Z,7.37
2018-03-21T12:57:20.931Z,6.20
2018-03-21T12:59:49.472Z,7.33
2018-03-21T13:02:17.836Z,7.17
2018-03-21T13:04:46.954Z,7.43
2018-03-21T13:07:15.312Z,7.83
2018-03-21T13:09:44.440Z,7.43
2018-03-21T13:12:12.795Z,7.93
2018-03-21T13:14:41.157Z,7.70
2018-03-21T13:17:10.272Z,7.70
2018-03-21T13:19:38.637Z,7.87
2018-03-21T13:22:07.757Z,7.07
2018-03-21T13:24:36.112Z,7.90
2018-03-21T13:27:05.224Z,7.23
2018-03-21T13:29:33.592Z,6.37
2018-03-21T13:32:01.940Z,7.40
2018-03-21T13:34:30.332Z,7.10
2018-03-21T13:37:00.074Z,6.83
2018-03-21T13:39:28.517Z,7.50
2018-03-21T13:41:57.664Z,7.70
2018-03-21T13:44:26.030Z,7.00
2018-03-21T13:46:54.379Z,8.13
2018-03-21T13:49:23.521Z,6.70
2018-03-21T13:51:51.873Z,7.40
2018-03-21T13:54:20.224Z,6.43
2018-03-21T13:56:49.327Z,8.60
2018-03-21T13:59:18.456Z,8.40
2018-03-21T14:01:46.806Z,5.80
2018-03-21T14:04:15.148Z,6.57
2018-03-21T14:06:43.589Z,7.30
2018-03-21T14:09:11.946Z,8.90
2018-03-21T14:11:40.357Z,9.07
2018-03-21T14:14:09.668Z,8.10
2018-03-21T14:16:38.206Z,8.97
2018-03-21T14:19:06.552Z,8.90
2018-03-21T14:21:34.932Z,8.33
2018-03-21T14:24:03.281Z,8.73
2018-03-21T14:26:31.701Z,7.30
2018-03-21T14:29:00.073Z,7.90
2018-03-21T14:31:28.433Z,6.40
2018-03-21T14:33:56.829Z,6.30
2018-03-21T14:36:25.201Z,6.93
2018-03-21T14:38:53.553Z,6.27
2018-03-21T14:41:21.925Z,5.77
2018-03-21T14:43:50.271Z,7.30
2018-03-21T14:46:18.634Z,7.67
2018-03-21T14:48:47.765Z,7.87
2018-03-21T14:51:16.109Z,8.77
2018-03-21T14:53:44.482Z,9.07
2018-03-21T14:56:13.618Z,8.20
2018-03-21T14:58:41.984Z,10.07
2018-03-21T15:01:10.347Z,8.10
2018-03-21T15:03:38.717Z,8.07
2018-03-21T15:06:07.064Z,9.83
2018-03-21T15:08:35.451Z,9.97
2018-03-21T15:11:03.829Z,10.00
2018-03-21T15:13:31.856Z,10.00
2018-03-21T15:16:00.210Z,9.97
2018-03-21T15:18:28.580Z,10.77
2018-03-21T15:20:56.888Z,10.47
2018-03-21T15:23:25.272Z,9.70
2018-03-21T15:25:53.651Z,9.90
2018-03-21T15:28:22.800Z,10.87
2018-03-21T15:30:52.126Z,9.57
2018-03-21T15:33:20.620Z,7.07
2018-03-21T15:35:49.150Z,9.77
2018-03-21T15:38:17.496Z,8.30
2018-03-21T15:40:45.972Z,10.00
2018-03-21T15:43:14.325Z,9.40
2018-03-21T15:45:42.684Z,8.73
2018-03-21T15:48:10.852Z,10.17
2018-03-21T15:50:39.212Z,10.70
2018-03-21T15:53:08.641Z,9.77
2018-03-21T15:55:37.060Z,9.53
2018-03-21T15:58:05.427Z,10.47
2018-03-21T16:00:33.827Z,9.27
2018-03-21T16:03:02.217Z,9.23
2018-03-21T16:05:30.792Z,9.67
2018-03-21T16:07:59.153Z,9.67
2018-03-21T16:10:27.513Z,9.87
2018-03-21T16:12:55.974Z,10.13
2018-03-21T16:15:25.311Z,8.67
2018-03-21T16:17:53.676Z,9.87
2018-03-21T16:20:22.044Z,8.30
2018-03-21T16:22:50.388Z,7.97
2018-03-21T16:25:19.502Z,8.67
2018-03-21T16:27:47.856Z,7.77
2018-03-21T16:30:16.985Z,8.30
2018-03-21T16:32:45.342Z,8.13
2018-03-21T16:35:13.711Z,6.70
2018-03-21T16:37:42.853Z,8.60
2018-03-21T16:40:11.196Z,8.70
2018-03-21T16:42:39.634Z,7.93
2018-03-21T16:45:07.987Z,8.90
2018-03-21T16:47:36.350Z,8.57
2018-03-21T16:50:04.383Z,10.47
2018-03-21T16:52:33.555Z,8.27
2018-03-21T16:55:01.909Z,8.23
2018-03-21T16:57:30.300Z,8.50
2018-03-21T16:59:58.742Z,8.23
2018-03-21T17:02:27.104Z,9.97
2018-03-21T17:04:56.230Z,8.30
2018-03-21T17:07:24.636Z,8.17
2018-03-21T17:09:53.769Z,9.53
2018-03-21T17:12:27.627Z,9.37
2018-03-21T17:14:56.242Z,8.80
2018-03-21T17:17:25.387Z,8.80
2018-03-21T17:19:53.768Z,6.87
2018-03-21T17:22:22.116Z,8.23
2018-03-21T17:24:50.484Z,7.07
2018-03-21T17:27:19.838Z,8.63
2018-03-21T17:29:48.200Z,7.53
2018-03-21T17:32:16.552Z,7.43
2018-03-21T17:34:44.945Z,9.60
2018-03-21T17:37:14.060Z,6.87
2018-03-21T17:39:42.555Z,7.87
2018-03-21T17:42:10.988Z,7.67
2018-03-21T17:44:39.347Z,9.07
2018-03-21T17:47:08.476Z,8.60
2018-03-21T17:49:36.893Z,10.97
2018-03-21T17:52:05.439Z,7.60
2018-03-21T17:54:33.799Z,8.63
2018-03-21T17:57:02.273Z,7.43
2018-03-21T17:59:30.661Z,9.00
2018-03-21T18:01:58.832Z,8.30
2018-03-21T18:04:27.213Z,8.03
2018-03-21T18:06:55.603Z,7.83
2018-03-21T18:09:23.760Z,7.70
2018-03-21T18:11:52.127Z,7.40
2018-03-21T18:14:21.280Z,8.40
2018-03-21T18:16:50.412Z,10.67
2018-03-21T18:19:19.536Z,8.10
2018-03-21T18:21:48.000Z,8.00
2018-03-21T18:24:16.373Z,9.00
2018-03-21T18:26:45.490Z,7.67
2018-03-21T18:29:13.860Z,10.30
2018-03-21T18:31:42.247Z,8.13
2018-03-21T18:34:10.850Z,7.43
2018-03-21T18:36:39.229Z,8.00
2018-03-21T18:39:07.573Z,8.50
2018-03-21T18:41:36.029Z,9.00
2018-03-21T18:44:04.960Z,8.40
2018-03-21T18:46:33.368Z,8.57
2018-03-21T18:49:01.730Z,13.13
2018-03-21T18:51:30.088Z,12.20
2018-03-21T18:53:58.454Z,11.10
2018-03-21T18:56:26.814Z,12.77
2018-03-21T18:58:55.318Z,10.60
2018-03-21T19:01:23.668Z,9.67
2018-03-21T19:03:52.803Z,8.67
2018-03-21T19:06:21.204Z,9.27
2018-03-21T19:08:49.748Z,9.40
2018-03-21T19:11:17.904Z,10.73
2018-03-21T19:13:47.084Z,10.50
2018-03-21T19:16:15.699Z,9.57
2018-03-21T19:18:44.080Z,9.67
2018-03-21T19:21:12.447Z,8.37
2018-03-21T19:23:41.598Z,9.83
2018-03-21T19:26:09.940Z,9.60
2018-03-21T19:28:38.302Z,9.70
2018-03-21T19:31:06.654Z,9.87
2018-03-21T19:33:35.187Z,9.63
2018-03-21T19:36:03.544Z,8.60
2018-03-21T19:38:32.043Z,9.17
2018-03-21T19:41:00.398Z,9.73
2018-03-21T19:43:31.041Z,11.27
2018-03-21T19:45:59.499Z,11.23
2018-03-21T19:48:27.911Z,10.13
2018-03-21T19:50:56.285Z,9.93
2018-03-21T19:53:24.684Z,9.53
2018-03-21T19:55:56.713Z,10.40
2018-03-21T19:58:25.098Z,11.80
2018-03-21T20:00:53.548Z,9.90
2018-03-21T20:03:22.699Z,11.53
2018-03-21T20:05:51.107Z,10.13
2018-03-21T20:08:19.807Z,11.27
2018-03-21T20:10:48.924Z,8.60
2018-03-21T20:13:17.268Z,9.33
2018-03-21T20:15:45.651Z,9.53
2018-03-21T20:18:14.072Z,9.63
2018-03-21T20:20:42.425Z,9.47
2018-03-21T20:23:11.560Z,9.67
2018-03-21T20:25:39.931Z,10.10
2018-03-21T20:28:08.305Z,8.20
2018-03-21T20:30:36.672Z,9.37
2018-03-21T20:33:05.050Z,9.23
2018-03-21T20:35:33.413Z,9.67
2018-03-21T20:38:02.549Z,10.10
2018-03-21T20:40:30.969Z,9.20
2018-03-21T20:42:59.341Z,9.47
2018-03-21T20:45:27.698Z,9.93
2018-03-21T20:47:56.068Z,9.27
2018-03-21T20:50:24.432Z,9.80
2018-03-21T20:52:53.566Z,9.87
2018-03-21T20:55:21.934Z,9.37
2018-03-21T20:57:50.304Z,7.90
2018-03-21T21:00:18.664Z,7.57
2018-03-21T21:02:47.120Z,6.67
2018-03-21T21:05:15.474Z,6.87
2018-03-21T21:07:43.822Z,6.80
2018-03-21T21:10:12.189Z,9.00
2018-03-21T21:12:40.212Z,10.27
2018-03-21T21:15:09.354Z,7.83
2018-03-21T21:17:37.725Z,10.63
2018-03-21T21:20:05.460Z,7.33
2018-03-21T21:22:33.804Z,7.60
2018-03-21T21:25:02.173Z,8.23
2018-03-21T21:27:30.531Z,8.37
2018-03-21T21:29:58.926Z,7.53
2018-03-21T21:32:27.272Z,9.23
2018-03-21T21:34:55.637Z,8.50
2018-03-21T21:37:23.998Z,9.57
2018-03-21T21:39:53.140Z,13.50
2018-03-21T21:42:21.488Z,7.80
2018-03-21T21:44:49.858Z,7.70
2018-03-21T21:47:18.055Z,8.80
2018-03-21T21:49:46.496Z,8.97
2018-03-21T21:52:15.609Z,9.20
2018-03-21T21:54:43.972Z,6.17
2018-03-21T21:57:12.488Z,8.70
2018-03-21T21:59:40.855Z,9.80
2018-03-21T22:02:09.281Z,9.80
2018-03-21T22:04:37.630Z,8.27
2018-03-21T22:07:06.005Z,10.80
2018-03-21T22:09:34.354Z,8.20
2018-03-21T22:12:02.517Z,8.80
2018-03-21T22:14:31.628Z,8.13
2018-03-21T22:16:59.994Z,7.00
2018-03-21T22:19:29.117Z,10.07
2018-03-21T22:21:57.774Z,9.73
2018-03-21T22:24:26.174Z,8.47
2018-03-21T22:26:54.532Z,8.70
2018-03-21T22:29:22.881Z,10.87
2018-03-21T22:31:51.244Z,9.90
2018-03-21T22:34:19.632Z,9.60
2018-03-21T22:36:53.222Z,10.30
2018-03-21T22:39:22.433Z,9.23
2018-03-21T22:41:50.805Z,10.67
2018-03-21T22:44:19.169Z,10.57
2018-03-21T22:46:47.626Z,9.03
2018-03-21T22:49:16.076Z,9.90
2018-03-21T22:51:45.209Z,10.40
2018-03-21T22:54:13.580Z,9.63
2018-03-21T22:56:41.923Z,9.33
2018-03-21T22:59:10.292Z,10.60
2018-03-21T23:01:39.397Z,9.93
2018-03-21T23:04:08.550Z,10.40
2018-03-21T23:06:36.907Z,11.20
2018-03-21T23:09:04.883Z,12.33
2018-03-21T23:11:33.292Z,10.67
2018-03-21T23:14:02.010Z,10.45
2018-03-21T23:16:30.372Z,11.97
2018-03-21T23:18:59.496Z,9.60
2018-03-21T23:21:27.850Z,12.10
2018-03-21T23:23:56.975Z,11.57
2018-03-21T23:26:25.328Z,12.13
2018-03-21T23:28:54.484Z,10.03
2018-03-21T23:31:22.839Z,11.40
2018-03-21T23:33:51.200Z,10.50
2018-03-21T23:36:19.560Z,11.80
2018-03-21T23:38:48.687Z,12.50
2018-03-21T23:41:17.069Z,10.47
2018-03-21T23:43:45.438Z,13.60
2018-03-21T23:46:13.805Z,11.00
2018-03-21T23:48:42.173Z,8.17
2018-03-21T23:51:11.300Z,10.17
2018-03-21T23:53:39.674Z,9.30
2018-03-21T23:56:08.044Z,10.57
2018-03-21T23:58:36.399Z,11.30
